DAL1058 KATL-KPBI
Flight info
| Callsign | DAL1058 |
|---|---|
| Flight time | 1h 20m |
| Altitude | 37000 |
| Route | SMLTZ3 WALET ZPLEN VUUDU1 |
| Aircraft | B738/M-SDE2E3FGHIRWXY/LB1 |
Departure
| Time | 2026-05-04 02:31 |
|---|---|
| Airport | Hartsfield Jackson Atlanta International Airport (KATL) |
Arrival
| Time | 2026-05-04 03:51 |
|---|---|
| Airport | Palm Beach International Airport (KPBI) |
| Time | Latitude | Longitude | Altitude | Speed | Heading |
|---|---|---|---|---|---|
| 2026-05-04 01:58 | 33.63862 | -84.42983 | 1005 ft | 0 kts | 90° |
| 2026-05-04 02:20 | 33.63862 | -84.42991 | 1005 ft | 4 kts | 89° |
| 2026-05-04 02:20 | 33.63862 | -84.43023 | 1005 ft | 4 kts | 102° |
| 2026-05-04 02:21 | 33.63872 | -84.43051 | 1005 ft | 4 kts | 136° |
| 2026-05-04 02:21 | 33.63891 | -84.43064 | 1005 ft | 2 kts | 180° |
| 2026-05-04 02:21 | 33.63897 | -84.43064 | 1005 ft | 0 kts | 180° |
| 2026-05-04 02:25 | 33.63896 | -84.43064 | 1005 ft | 1 kts | 180° |
| 2026-05-04 02:25 | 33.63860 | -84.43064 | 1005 ft | 10 kts | 180° |
| 2026-05-04 02:25 | 33.63772 | -84.43064 | 1005 ft | 13 kts | 180° |
| 2026-05-04 02:26 | 33.63685 | -84.43042 | 1005 ft | 13 kts | 144° |
| 2026-05-04 02:26 | 33.63661 | -84.42943 | 1005 ft | 13 kts | 91° |
| 2026-05-04 02:26 | 33.63659 | -84.42840 | 1005 ft | 12 kts | 91° |
| 2026-05-04 02:26 | 33.63655 | -84.42739 | 1005 ft | 12 kts | 96° |
| 2026-05-04 02:27 | 33.63654 | -84.42641 | 1006 ft | 12 kts | 88° |
| 2026-05-04 02:27 | 33.63655 | -84.42546 | 1006 ft | 11 kts | 89° |
| 2026-05-04 02:27 | 33.63655 | -84.42444 | 1006 ft | 14 kts | 89° |
| 2026-05-04 02:27 | 33.63655 | -84.42319 | 1006 ft | 16 kts | 90° |
| 2026-05-04 02:28 | 33.63655 | -84.42177 | 1006 ft | 18 kts | 90° |
| 2026-05-04 02:28 | 33.63655 | -84.42020 | 1006 ft | 20 kts | 90° |
| 2026-05-04 02:28 | 33.63655 | -84.41849 | 1005 ft | 21 kts | 90° |
| 2026-05-04 02:28 | 33.63656 | -84.41668 | 1005 ft | 22 kts | 90° |
| 2026-05-04 02:29 | 33.63654 | -84.41479 | 1005 ft | 23 kts | 89° |
| 2026-05-04 02:29 | 33.63654 | -84.41278 | 1005 ft | 24 kts | 89° |
| 2026-05-04 02:29 | 33.63655 | -84.41073 | 1005 ft | 25 kts | 90° |
| 2026-05-04 02:29 | 33.63628 | -84.40925 | 1005 ft | 16 kts | 150° |
| 2026-05-04 02:30 | 33.63525 | -84.40910 | 1006 ft | 14 kts | 184° |
| 2026-05-04 02:30 | 33.63470 | -84.40985 | 1006 ft | 13 kts | 266° |
| 2026-05-04 02:30 | 33.63471 | -84.41169 | 1004 ft | 48 kts | 271° |
| 2026-05-04 02:30 | 33.63471 | -84.41862 | 1006 ft | 116 kts | 270° |
| 2026-05-04 02:31 | 33.63473 | -84.43058 | 1062 ft | 165 kts | 271° |
| 2026-05-04 02:31 | 33.63511 | -84.44376 | 1820 ft | 158 kts | 273° |
| 2026-05-04 02:31 | 33.63485 | -84.45721 | 2377 ft | 165 kts | 263° |
| 2026-05-04 02:31 | 33.63277 | -84.47106 | 2863 ft | 174 kts | 253° |
| 2026-05-04 02:32 | 33.62538 | -84.48347 | 3084 ft | 199 kts | 214° |
| 2026-05-04 02:32 | 33.61181 | -84.48798 | 3398 ft | 210 kts | 179° |
| 2026-05-04 02:32 | 33.59731 | -84.48298 | 3548 ft | 227 kts | 153° |
| 2026-05-04 02:32 | 33.58299 | -84.47382 | 3709 ft | 241 kts | 153° |
| 2026-05-04 02:33 | 33.56763 | -84.46405 | 3817 ft | 259 kts | 153° |
| 2026-05-04 02:33 | 33.55141 | -84.45392 | 4171 ft | 264 kts | 153° |
| 2026-05-04 02:33 | 33.53504 | -84.44384 | 4640 ft | 264 kts | 154° |
| 2026-05-04 02:33 | 33.51832 | -84.43419 | 5055 ft | 266 kts | 155° |
| 2026-05-04 02:34 | 33.50136 | -84.42485 | 5336 ft | 275 kts | 156° |
| 2026-05-04 02:34 | 33.48378 | -84.41560 | 5782 ft | 274 kts | 156° |
| 2026-05-04 02:34 | 33.46621 | -84.40653 | 6160 ft | 277 kts | 157° |
| 2026-05-04 02:34 | 33.44825 | -84.39754 | 6536 ft | 280 kts | 157° |
| 2026-05-04 02:35 | 33.43043 | -84.38867 | 6901 ft | 282 kts | 157° |
| 2026-05-04 02:35 | 33.41222 | -84.37959 | 7248 ft | 285 kts | 157° |
| 2026-05-04 02:35 | 33.39387 | -84.37042 | 7633 ft | 287 kts | 157° |
| 2026-05-04 02:35 | 33.37539 | -84.36113 | 7983 ft | 289 kts | 156° |
| 2026-05-04 02:36 | 33.35684 | -84.35152 | 8326 ft | 291 kts | 156° |
| 2026-05-04 02:36 | 33.33816 | -84.34183 | 8665 ft | 294 kts | 156° |
| 2026-05-04 02:36 | 33.31931 | -84.33216 | 8999 ft | 296 kts | 157° |
| 2026-05-04 02:36 | 33.30029 | -84.32249 | 9327 ft | 298 kts | 157° |
| 2026-05-04 02:37 | 33.28107 | -84.31280 | 9656 ft | 300 kts | 157° |
| 2026-05-04 02:37 | 33.26177 | -84.30313 | 10193 ft | 302 kts | 157° |
| 2026-05-04 02:37 | 33.24173 | -84.29312 | 10421 ft | 324 kts | 157° |
| 2026-05-04 02:37 | 33.22026 | -84.28243 | 10597 ft | 345 kts | 158° |
| 2026-05-04 02:38 | 33.19739 | -84.27107 | 10756 ft | 365 kts | 158° |
| 2026-05-04 02:38 | 33.17353 | -84.25924 | 11121 ft | 377 kts | 158° |
| 2026-05-04 02:38 | 33.14917 | -84.24716 | 11704 ft | 381 kts | 158° |
| 2026-05-04 02:38 | 33.12460 | -84.23498 | 12366 ft | 383 kts | 158° |
| 2026-05-04 02:39 | 33.09985 | -84.22270 | 13018 ft | 387 kts | 158° |
| 2026-05-04 02:39 | 33.07485 | -84.21031 | 13652 ft | 391 kts | 158° |
| 2026-05-04 02:39 | 33.04958 | -84.19779 | 14269 ft | 395 kts | 159° |
| 2026-05-04 02:39 | 33.02407 | -84.18517 | 14942 ft | 398 kts | 159° |
| 2026-05-04 02:40 | 32.99837 | -84.17248 | 15587 ft | 401 kts | 159° |
| 2026-05-04 02:40 | 32.97220 | -84.16070 | 16221 ft | 404 kts | 162° |
| 2026-05-04 02:40 | 32.94553 | -84.14962 | 16845 ft | 407 kts | 163° |
| 2026-05-04 02:40 | 32.91852 | -84.13873 | 17454 ft | 411 kts | 163° |
| 2026-05-04 02:41 | 32.89127 | -84.12778 | 18044 ft | 415 kts | 163° |
| 2026-05-04 02:41 | 32.86381 | -84.11668 | 18622 ft | 419 kts | 163° |
| 2026-05-04 02:41 | 32.83612 | -84.10541 | 19135 ft | 422 kts | 163° |
| 2026-05-04 02:41 | 32.80823 | -84.09400 | 19653 ft | 425 kts | 163° |
| 2026-05-04 02:42 | 32.78018 | -84.08249 | 20161 ft | 428 kts | 162° |
| 2026-05-04 02:42 | 32.75226 | -84.07101 | 20655 ft | 431 kts | 162° |
| 2026-05-04 02:42 | 32.72372 | -84.05928 | 21131 ft | 435 kts | 162° |
| 2026-05-04 02:42 | 32.69491 | -84.04745 | 21609 ft | 438 kts | 162° |
| 2026-05-04 02:43 | 32.66595 | -84.03556 | 22088 ft | 441 kts | 162° |
| 2026-05-04 02:43 | 32.63682 | -84.02361 | 22555 ft | 444 kts | 162° |
| 2026-05-04 02:43 | 32.60755 | -84.01162 | 23016 ft | 447 kts | 162° |
| 2026-05-04 02:43 | 32.57802 | -83.99953 | 23472 ft | 450 kts | 162° |
| 2026-05-04 02:44 | 32.54828 | -83.98736 | 23885 ft | 453 kts | 162° |
| 2026-05-04 02:44 | 32.51831 | -83.97511 | 24258 ft | 456 kts | 162° |
| 2026-05-04 02:44 | 32.48818 | -83.96280 | 24623 ft | 459 kts | 162° |
| 2026-05-04 02:44 | 32.45795 | -83.95046 | 24985 ft | 461 kts | 162° |
| 2026-05-04 02:45 | 32.42749 | -83.93804 | 25344 ft | 464 kts | 162° |
| 2026-05-04 02:45 | 32.39689 | -83.92556 | 25687 ft | 466 kts | 162° |
| 2026-05-04 02:45 | 32.36610 | -83.91302 | 26015 ft | 469 kts | 162° |
| 2026-05-04 02:45 | 32.33561 | -83.90116 | 26440 ft | 468 kts | 165° |
| 2026-05-04 02:46 | 32.30406 | -83.88977 | 26862 ft | 467 kts | 166° |
| 2026-05-04 02:46 | 32.27279 | -83.87884 | 27178 ft | 470 kts | 166° |
| 2026-05-04 02:46 | 32.24124 | -83.86788 | 27458 ft | 473 kts | 166° |
| 2026-05-04 02:46 | 32.20960 | -83.85683 | 27755 ft | 476 kts | 166° |
| 2026-05-04 02:47 | 32.17831 | -83.84579 | 28205 ft | 473 kts | 167° |
| 2026-05-04 02:47 | 32.14686 | -83.83462 | 28725 ft | 471 kts | 167° |
| 2026-05-04 02:47 | 32.11540 | -83.82342 | 28964 ft | 474 kts | 167° |
| 2026-05-04 02:47 | 32.08366 | -83.81213 | 29225 ft | 476 kts | 167° |
| 2026-05-04 02:48 | 32.05192 | -83.80083 | 29590 ft | 476 kts | 167° |
| 2026-05-04 02:48 | 32.02025 | -83.78955 | 30052 ft | 474 kts | 167° |
| 2026-05-04 02:48 | 31.98874 | -83.77833 | 30474 ft | 472 kts | 167° |
| 2026-05-04 02:48 | 31.95742 | -83.76719 | 30824 ft | 471 kts | 167° |
| 2026-05-04 02:49 | 31.92603 | -83.75605 | 31127 ft | 470 kts | 167° |
| 2026-05-04 02:49 | 31.90531 | -83.74871 | 31325 ft | 470 kts | 168° |
| 2026-05-04 02:49 | 31.87408 | -83.73764 | 31730 ft | 467 kts | 168° |
| 2026-05-04 02:49 | 31.84302 | -83.72663 | 32093 ft | 466 kts | 168° |
| 2026-05-04 02:50 | 31.81189 | -83.71562 | 32372 ft | 466 kts | 168° |
| 2026-05-04 02:50 | 31.78084 | -83.70466 | 32630 ft | 467 kts | 168° |
| 2026-05-04 02:50 | 31.74974 | -83.69369 | 32931 ft | 466 kts | 168° |
| 2026-05-04 02:50 | 31.71876 | -83.68275 | 33266 ft | 465 kts | 169° |
| 2026-05-04 02:51 | 31.68781 | -83.67182 | 33585 ft | 464 kts | 168° |
| 2026-05-04 02:51 | 31.65697 | -83.66049 | 33861 ft | 465 kts | 168° |
| 2026-05-04 02:51 | 31.62616 | -83.64864 | 34108 ft | 466 kts | 168° |
| 2026-05-04 02:51 | 31.59540 | -83.63662 | 34332 ft | 466 kts | 168° |
| 2026-05-04 02:52 | 31.56465 | -83.62458 | 34570 ft | 466 kts | 168° |
| 2026-05-04 02:52 | 31.53262 | -83.61210 | 34830 ft | 465 kts | 168° |
| 2026-05-04 02:52 | 31.50315 | -83.60069 | 35046 ft | 465 kts | 168° |
| 2026-05-04 02:52 | 31.47242 | -83.58885 | 35260 ft | 465 kts | 168° |
| 2026-05-04 02:53 | 31.43833 | -83.57577 | 35512 ft | 464 kts | 168° |
| 2026-05-04 02:53 | 31.41101 | -83.56531 | 35703 ft | 464 kts | 169° |
| 2026-05-04 02:53 | 31.38064 | -83.55370 | 35908 ft | 464 kts | 169° |
| 2026-05-04 02:53 | 31.34994 | -83.54197 | 36077 ft | 464 kts | 169° |
| 2026-05-04 02:54 | 31.31923 | -83.53022 | 36268 ft | 463 kts | 170° |
| 2026-05-04 02:54 | 31.28878 | -83.51850 | 36754 ft | 456 kts | 170° |
| 2026-05-04 02:54 | 31.25875 | -83.50701 | 37028 ft | 454 kts | 171° |
| 2026-05-04 02:54 | 31.22872 | -83.49560 | 37138 ft | 455 kts | 171° |
| 2026-05-04 02:55 | 31.16812 | -83.47261 | 37429 ft | 457 kts | 171° |
| 2026-05-04 02:55 | 31.13793 | -83.46112 | 37674 ft | 455 kts | 171° |
| 2026-05-04 02:55 | 31.10783 | -83.44967 | 37863 ft | 455 kts | 171° |
| 2026-05-04 02:56 | 31.07827 | -83.43743 | 38000 ft | 460 kts | 167° |
| 2026-05-04 02:56 | 31.04823 | -83.42273 | 38104 ft | 463 kts | 166° |
| 2026-05-04 02:56 | 31.01915 | -83.40761 | 38282 ft | 464 kts | 165° |
| 2026-05-04 02:56 | 30.98982 | -83.39211 | 38450 ft | 463 kts | 165° |
| 2026-05-04 02:57 | 30.96031 | -83.37656 | 38598 ft | 463 kts | 166° |
| 2026-05-04 02:57 | 30.93081 | -83.36120 | 38747 ft | 464 kts | 166° |
| 2026-05-04 02:57 | 30.90133 | -83.34603 | 38882 ft | 463 kts | 166° |
| 2026-05-04 02:57 | 30.87187 | -83.33098 | 39029 ft | 462 kts | 166° |
| 2026-05-04 02:58 | 30.84242 | -83.31603 | 39122 ft | 462 kts | 166° |
| 2026-05-04 02:58 | 30.78329 | -83.28616 | 39130 ft | 465 kts | 167° |
| 2026-05-04 02:59 | 30.72413 | -83.25632 | 39152 ft | 468 kts | 167° |
| 2026-05-04 02:59 | 30.66425 | -83.22614 | 39166 ft | 471 kts | 167° |
| 2026-05-04 03:00 | 30.60402 | -83.19579 | 39156 ft | 473 kts | 167° |
| 2026-05-04 03:00 | 30.54395 | -83.16548 | 39140 ft | 467 kts | 167° |
| 2026-05-04 03:01 | 30.48485 | -83.13568 | 39148 ft | 459 kts | 167° |
| 2026-05-04 03:01 | 30.42666 | -83.10646 | 39139 ft | 453 kts | 167° |
| 2026-05-04 03:02 | 30.36852 | -83.07742 | 39157 ft | 457 kts | 167° |
| 2026-05-04 03:02 | 30.30982 | -83.04813 | 39152 ft | 461 kts | 167° |
| 2026-05-04 03:03 | 30.25060 | -83.01874 | 39145 ft | 462 kts | 170° |
| 2026-05-04 03:03 | 30.18994 | -82.99700 | 39117 ft | 455 kts | 176° |
| 2026-05-04 03:04 | 30.12876 | -82.97807 | 39135 ft | 456 kts | 176° |
| 2026-05-04 03:04 | 30.06781 | -82.95893 | 39140 ft | 457 kts | 175° |
| 2026-05-04 03:05 | 30.00651 | -82.93913 | 39151 ft | 457 kts | 175° |
| 2026-05-04 03:05 | 29.94541 | -82.91916 | 39140 ft | 456 kts | 175° |
| 2026-05-04 03:06 | 29.88452 | -82.89926 | 39111 ft | 453 kts | 176° |
| 2026-05-04 03:06 | 29.82395 | -82.87951 | 39127 ft | 451 kts | 176° |
| 2026-05-04 03:07 | 29.76362 | -82.85989 | 39134 ft | 450 kts | 176° |
| 2026-05-04 03:07 | 29.70342 | -82.84035 | 39143 ft | 449 kts | 176° |
| 2026-05-04 03:08 | 29.64330 | -82.82086 | 39135 ft | 449 kts | 176° |
| 2026-05-04 03:08 | 29.58329 | -82.80141 | 39129 ft | 447 kts | 176° |
| 2026-05-04 03:09 | 29.52330 | -82.78201 | 39131 ft | 448 kts | 176° |
| 2026-05-04 03:09 | 29.46334 | -82.76258 | 39123 ft | 448 kts | 177° |
| 2026-05-04 03:10 | 29.40331 | -82.74324 | 39125 ft | 447 kts | 177° |
| 2026-05-04 03:10 | 29.34339 | -82.72394 | 39123 ft | 447 kts | 177° |
| 2026-05-04 03:11 | 29.28360 | -82.70467 | 39116 ft | 445 kts | 178° |
| 2026-05-04 03:11 | 29.22405 | -82.68552 | 39115 ft | 444 kts | 178° |
| 2026-05-04 03:12 | 29.16452 | -82.66640 | 39123 ft | 444 kts | 178° |
| 2026-05-04 03:12 | 29.10545 | -82.64741 | 39123 ft | 443 kts | 178° |
| 2026-05-04 03:13 | 29.04616 | -82.62840 | 39073 ft | 443 kts | 178° |
| 2026-05-04 03:13 | 28.98695 | -82.60943 | 39127 ft | 441 kts | 178° |
| 2026-05-04 03:14 | 28.92770 | -82.59050 | 39151 ft | 441 kts | 178° |
| 2026-05-04 03:14 | 28.86854 | -82.57164 | 39135 ft | 441 kts | 178° |
| 2026-05-04 03:15 | 28.80945 | -82.55280 | 39104 ft | 441 kts | 178° |
| 2026-05-04 03:15 | 28.75024 | -82.53395 | 39046 ft | 442 kts | 178° |
| 2026-05-04 03:16 | 28.69112 | -82.51513 | 39093 ft | 441 kts | 178° |
| 2026-05-04 03:16 | 28.63231 | -82.49644 | 39116 ft | 441 kts | 178° |
| 2026-05-04 03:17 | 28.57310 | -82.47765 | 39130 ft | 442 kts | 178° |
| 2026-05-04 03:17 | 28.51382 | -82.45887 | 39129 ft | 442 kts | 178° |
| 2026-05-04 03:18 | 28.45440 | -82.44005 | 39132 ft | 443 kts | 178° |
| 2026-05-04 03:18 | 28.39514 | -82.42129 | 39122 ft | 441 kts | 179° |
| 2026-05-04 03:19 | 28.33605 | -82.40262 | 39118 ft | 440 kts | 179° |
| 2026-05-04 03:19 | 28.27711 | -82.38402 | 39114 ft | 438 kts | 180° |
| 2026-05-04 03:20 | 28.21845 | -82.36554 | 39123 ft | 436 kts | 180° |
| 2026-05-04 03:20 | 28.16039 | -82.34728 | 39118 ft | 434 kts | 180° |
| 2026-05-04 03:21 | 28.10242 | -82.32907 | 39104 ft | 430 kts | 180° |
| 2026-05-04 03:21 | 28.04480 | -82.31100 | 39110 ft | 428 kts | 180° |
| 2026-05-04 03:21 | 28.01605 | -82.30192 | 38890 ft | 434 kts | 179° |
| 2026-05-04 03:22 | 27.98685 | -82.29223 | 38397 ft | 436 kts | 179° |
| 2026-05-04 03:22 | 27.95780 | -82.28225 | 37830 ft | 435 kts | 178° |
| 2026-05-04 03:22 | 27.92894 | -82.27225 | 37272 ft | 433 kts | 178° |
| 2026-05-04 03:22 | 27.90014 | -82.26234 | 36721 ft | 432 kts | 178° |
| 2026-05-04 03:23 | 27.87138 | -82.25252 | 36161 ft | 431 kts | 177° |
| 2026-05-04 03:23 | 27.84261 | -82.24278 | 35493 ft | 432 kts | 177° |
| 2026-05-04 03:23 | 27.81416 | -82.23320 | 34911 ft | 433 kts | 176° |
| 2026-05-04 03:23 | 27.78521 | -82.22346 | 34296 ft | 434 kts | 176° |
| 2026-05-04 03:24 | 27.75611 | -82.21368 | 33566 ft | 437 kts | 175° |
| 2026-05-04 03:24 | 27.72691 | -82.20384 | 32870 ft | 439 kts | 175° |
| 2026-05-04 03:24 | 27.69751 | -82.19394 | 32166 ft | 441 kts | 175° |
| 2026-05-04 03:24 | 27.66799 | -82.18400 | 31442 ft | 444 kts | 174° |
| 2026-05-04 03:25 | 27.63829 | -82.17400 | 30782 ft | 446 kts | 174° |
| 2026-05-04 03:25 | 27.60874 | -82.16403 | 30248 ft | 443 kts | 174° |
| 2026-05-04 03:25 | 27.57907 | -82.15419 | 29642 ft | 447 kts | 174° |
| 2026-05-04 03:25 | 27.54885 | -82.14432 | 29093 ft | 455 kts | 174° |
| 2026-05-04 03:26 | 27.51840 | -82.13434 | 28513 ft | 453 kts | 173° |
| 2026-05-04 03:26 | 27.48866 | -82.12453 | 27965 ft | 448 kts | 173° |
| 2026-05-04 03:26 | 27.45890 | -82.11471 | 27431 ft | 443 kts | 173° |
| 2026-05-04 03:26 | 27.42943 | -82.10502 | 26911 ft | 439 kts | 173° |
| 2026-05-04 03:27 | 27.40028 | -82.09546 | 26407 ft | 434 kts | 173° |
| 2026-05-04 03:27 | 27.37170 | -82.08606 | 26252 ft | 421 kts | 173° |
| 2026-05-04 03:27 | 27.34398 | -82.07691 | 26052 ft | 410 kts | 173° |
| 2026-05-04 03:27 | 27.31706 | -82.06792 | 25981 ft | 397 kts | 173° |
| 2026-05-04 03:28 | 27.29053 | -82.05903 | 25903 ft | 401 kts | 173° |
| 2026-05-04 03:28 | 27.26342 | -82.05004 | 25836 ft | 412 kts | 173° |
| 2026-05-04 03:28 | 27.23573 | -82.04085 | 25709 ft | 416 kts | 173° |
| 2026-05-04 03:28 | 27.20808 | -82.03159 | 25626 ft | 412 kts | 172° |
| 2026-05-04 03:29 | 27.18072 | -82.02239 | 25547 ft | 409 kts | 173° |
| 2026-05-04 03:29 | 27.15351 | -82.01328 | 25467 ft | 407 kts | 173° |
| 2026-05-04 03:29 | 27.12640 | -82.00425 | 25386 ft | 406 kts | 173° |
| 2026-05-04 03:29 | 27.09954 | -81.99530 | 25309 ft | 405 kts | 173° |
| 2026-05-04 03:30 | 27.07234 | -81.98624 | 25228 ft | 405 kts | 173° |
| 2026-05-04 03:30 | 27.04555 | -81.97573 | 25125 ft | 417 kts | 161° |
| 2026-05-04 03:30 | 27.02157 | -81.95606 | 24871 ft | 444 kts | 141° |
| 2026-05-04 03:30 | 27.00132 | -81.92939 | 24556 ft | 449 kts | 136° |
| 2026-05-04 03:31 | 26.98192 | -81.90214 | 24191 ft | 443 kts | 135° |
| 2026-05-04 03:31 | 26.96290 | -81.87527 | 23847 ft | 437 kts | 136° |
| 2026-05-04 03:31 | 26.94420 | -81.84927 | 23487 ft | 431 kts | 136° |
| 2026-05-04 03:31 | 26.92513 | -81.82317 | 23085 ft | 424 kts | 136° |
| 2026-05-04 03:32 | 26.91275 | -81.80638 | 22870 ft | 420 kts | 137° |
| 2026-05-04 03:32 | 26.89415 | -81.78127 | 22551 ft | 419 kts | 137° |
| 2026-05-04 03:32 | 26.86935 | -81.74787 | 22132 ft | 423 kts | 137° |
| 2026-05-04 03:32 | 26.85047 | -81.72265 | 21818 ft | 421 kts | 137° |
| 2026-05-04 03:33 | 26.83155 | -81.69773 | 21519 ft | 418 kts | 137° |
| 2026-05-04 03:33 | 26.81882 | -81.68106 | 21310 ft | 416 kts | 137° |
| 2026-05-04 03:33 | 26.80002 | -81.65649 | 21026 ft | 414 kts | 137° |
| 2026-05-04 03:33 | 26.78134 | -81.63206 | 20722 ft | 412 kts | 137° |
| 2026-05-04 03:34 | 26.76300 | -81.60808 | 20445 ft | 410 kts | 137° |
| 2026-05-04 03:34 | 26.74446 | -81.58382 | 20162 ft | 409 kts | 137° |
| 2026-05-04 03:34 | 26.72601 | -81.55967 | 19871 ft | 408 kts | 137° |
| 2026-05-04 03:34 | 26.70760 | -81.53557 | 19581 ft | 407 kts | 137° |
| 2026-05-04 03:35 | 26.69074 | -81.50984 | 19214 ft | 419 kts | 122° |
| 2026-05-04 03:35 | 26.68212 | -81.47823 | 18878 ft | 431 kts | 100° |
| 2026-05-04 03:35 | 26.68325 | -81.44445 | 18337 ft | 440 kts | 78° |
| 2026-05-04 03:35 | 26.69095 | -81.41127 | 17793 ft | 439 kts | 74° |
| 2026-05-04 03:36 | 26.69920 | -81.37878 | 17247 ft | 433 kts | 74° |
| 2026-05-04 03:36 | 26.70729 | -81.34662 | 16720 ft | 425 kts | 75° |
| 2026-05-04 03:36 | 26.71497 | -81.31507 | 16202 ft | 416 kts | 75° |
| 2026-05-04 03:36 | 26.72228 | -81.28419 | 15720 ft | 406 kts | 76° |
| 2026-05-04 03:37 | 26.72935 | -81.25393 | 15241 ft | 397 kts | 76° |
| 2026-05-04 03:37 | 26.73624 | -81.22430 | 14780 ft | 390 kts | 76° |
| 2026-05-04 03:37 | 26.74293 | -81.19558 | 14453 ft | 388 kts | 76° |
| 2026-05-04 03:37 | 26.74976 | -81.16629 | 14100 ft | 386 kts | 76° |
| 2026-05-04 03:38 | 26.75652 | -81.13726 | 13717 ft | 385 kts | 75° |
| 2026-05-04 03:38 | 26.76325 | -81.10832 | 13324 ft | 383 kts | 75° |
| 2026-05-04 03:38 | 26.76794 | -81.07927 | 12911 ft | 378 kts | 88° |
| 2026-05-04 03:38 | 26.76675 | -81.05007 | 12486 ft | 373 kts | 98° |
| 2026-05-04 03:39 | 26.76349 | -81.02143 | 12124 ft | 369 kts | 99° |
| 2026-05-04 03:39 | 26.76011 | -80.99310 | 11747 ft | 365 kts | 99° |
| 2026-05-04 03:39 | 26.75678 | -80.96506 | 11385 ft | 362 kts | 99° |
| 2026-05-04 03:39 | 26.75351 | -80.93726 | 11024 ft | 358 kts | 99° |
| 2026-05-04 03:40 | 26.75034 | -80.90983 | 10733 ft | 353 kts | 98° |
| 2026-05-04 03:40 | 26.74721 | -80.88259 | 10324 ft | 351 kts | 98° |
| 2026-05-04 03:40 | 26.74417 | -80.85593 | 9965 ft | 341 kts | 98° |
| 2026-05-04 03:40 | 26.74128 | -80.83038 | 9922 ft | 320 kts | 98° |
| 2026-05-04 03:41 | 26.73856 | -80.80633 | 9884 ft | 303 kts | 98° |
| 2026-05-04 03:41 | 26.73596 | -80.78333 | 9592 ft | 295 kts | 98° |
| 2026-05-04 03:41 | 26.73336 | -80.76055 | 9177 ft | 296 kts | 98° |
| 2026-05-04 03:41 | 26.73074 | -80.73771 | 8898 ft | 294 kts | 98° |
| 2026-05-04 03:42 | 26.72815 | -80.71511 | 8643 ft | 292 kts | 98° |
| 2026-05-04 03:42 | 26.72557 | -80.69267 | 8357 ft | 290 kts | 98° |
| 2026-05-04 03:42 | 26.72299 | -80.67022 | 7997 ft | 292 kts | 98° |
| 2026-05-04 03:42 | 26.72038 | -80.64757 | 7627 ft | 294 kts | 98° |
| 2026-05-04 03:43 | 26.71775 | -80.62480 | 7245 ft | 296 kts | 98° |
| 2026-05-04 03:43 | 26.71512 | -80.60194 | 6868 ft | 298 kts | 98° |
| 2026-05-04 03:43 | 26.71247 | -80.57885 | 6496 ft | 300 kts | 98° |
| 2026-05-04 03:43 | 26.70983 | -80.55608 | 6060 ft | 297 kts | 97° |
| 2026-05-04 03:44 | 26.70722 | -80.53350 | 5739 ft | 289 kts | 98° |
| 2026-05-04 03:44 | 26.70470 | -80.51163 | 5439 ft | 280 kts | 97° |
| 2026-05-04 03:44 | 26.70224 | -80.49030 | 5152 ft | 272 kts | 97° |
| 2026-05-04 03:44 | 26.70005 | -80.46973 | 5023 ft | 259 kts | 95° |
| 2026-05-04 03:45 | 26.69894 | -80.45019 | 4982 ft | 246 kts | 93° |
| 2026-05-04 03:45 | 26.69801 | -80.43096 | 4556 ft | 254 kts | 93° |
| 2026-05-04 03:45 | 26.69686 | -80.41128 | 4262 ft | 254 kts | 93° |
| 2026-05-04 03:45 | 26.69574 | -80.39157 | 4018 ft | 253 kts | 93° |
| 2026-05-04 03:46 | 26.69477 | -80.37205 | 3788 ft | 250 kts | 92° |
| 2026-05-04 03:46 | 26.69388 | -80.35274 | 3648 ft | 242 kts | 92° |
| 2026-05-04 03:46 | 26.69306 | -80.33431 | 3377 ft | 236 kts | 92° |
| 2026-05-04 03:46 | 26.69228 | -80.31629 | 3158 ft | 228 kts | 92° |
| 2026-05-04 03:47 | 26.69152 | -80.29889 | 2922 ft | 218 kts | 91° |
| 2026-05-04 03:47 | 26.69086 | -80.28253 | 2734 ft | 203 kts | 91° |
| 2026-05-04 03:47 | 26.69024 | -80.26729 | 2559 ft | 189 kts | 91° |
| 2026-05-04 03:47 | 26.68963 | -80.25324 | 2377 ft | 176 kts | 91° |
| 2026-05-04 03:48 | 26.68904 | -80.24003 | 2209 ft | 164 kts | 91° |
| 2026-05-04 03:48 | 26.68848 | -80.22752 | 2114 ft | 158 kts | 91° |
| 2026-05-04 03:48 | 26.68793 | -80.21517 | 1953 ft | 160 kts | 91° |
| 2026-05-04 03:48 | 26.68738 | -80.20270 | 1735 ft | 159 kts | 90° |
| 2026-05-04 03:49 | 26.68666 | -80.19107 | 1633 ft | 138 kts | 90° |
| 2026-05-04 03:49 | 26.68619 | -80.18022 | 1497 ft | 143 kts | 88° |
| 2026-05-04 03:49 | 26.68585 | -80.16901 | 1323 ft | 145 kts | 88° |
| 2026-05-04 03:49 | 26.68550 | -80.15777 | 1114 ft | 146 kts | 90° |
| 2026-05-04 03:50 | 26.68501 | -80.14618 | 851 ft | 148 kts | 90° |
| 2026-05-04 03:50 | 26.68456 | -80.13505 | 604 ft | 141 kts | 90° |
| 2026-05-04 03:50 | 26.68398 | -80.12424 | 325 ft | 138 kts | 87° |
| 2026-05-04 03:50 | 26.68354 | -80.11331 | 198 ft | 142 kts | 91° |
| 2026-05-04 03:51 | 26.68298 | -80.10236 | 42 ft | 138 kts | 89° |
| 2026-05-04 03:51 | 26.68252 | -80.09266 | 25 ft | 101 kts | 94° |
| 2026-05-04 03:51 | 26.68241 | -80.08897 | 25 ft | 8 kts | 90° |
| 2026-05-04 03:51 | 26.68269 | -80.08857 | 26 ft | 7 kts | 22° |
| 2026-05-04 03:52 | 26.68316 | -80.08847 | 26 ft | 7 kts | 354° |
| 2026-05-04 03:52 | 26.68345 | -80.08883 | 25 ft | 7 kts | 278° |
| 2026-05-04 03:52 | 26.68349 | -80.08935 | 25 ft | 7 kts | 273° |
| 2026-05-04 03:52 | 26.68350 | -80.08986 | 25 ft | 7 kts | 270° |
| 2026-05-04 03:53 | 26.68352 | -80.09037 | 25 ft | 7 kts | 275° |
| 2026-05-04 03:53 | 26.68379 | -80.09090 | 25 ft | 9 kts | 333° |
| 2026-05-04 03:53 | 26.68440 | -80.09096 | 26 ft | 9 kts | 358° |
| 2026-05-04 03:53 | 26.68499 | -80.09096 | 28 ft | 8 kts | 0° |
| 2026-05-04 03:54 | 26.68557 | -80.09094 | 26 ft | 8 kts | 4° |
| 2026-05-04 03:54 | 26.68612 | -80.09087 | 30 ft | 8 kts | 19° |
| 2026-05-04 03:54 | 26.68642 | -80.09041 | 27 ft | 8 kts | 84° |
| 2026-05-04 03:54 | 26.68641 | -80.09003 | 25 ft | 2 kts | 93° |
| 2026-05-04 03:55 | 26.68641 | -80.09000 | 25 ft | 0 kts | 92° |